sensor_id;sensor_type;location;lat;lon;timestamp;P1;durP1;ratioP1;P2;durP2;ratioP2
43519;SDS011;46848;51.980;5.918;2022-07-23T00:00:58;4.00;;;1.77;;
43519;SDS011;46848;51.980;5.918;2022-07-23T00:03:24;2.05;;;1.20;;
43519;SDS011;46848;51.980;5.918;2022-07-23T00:05:50;4.38;;;1.70;;
43519;SDS011;46848;51.980;5.918;2022-07-23T00:08:15;4.53;;;1.73;;
43519;SDS011;46848;51.980;5.918;2022-07-23T00:10:41;2.83;;;1.50;;
43519;SDS011;46848;51.980;5.918;2022-07-23T00:13:07;3.42;;;1.35;;
43519;SDS011;46848;51.980;5.918;2022-07-23T00:15:33;2.47;;;1.30;;
43519;SDS011;46848;51.980;5.918;2022-07-23T00:17:58;3.42;;;1.67;;
43519;SDS011;46848;51.980;5.918;2022-07-23T00:20:24;2.30;;;1.25;;
43519;SDS011;46848;51.980;5.918;2022-07-23T00:22:50;4.47;;;1.40;;
43519;SDS011;46848;51.980;5.918;2022-07-23T00:25:17;5.75;;;1.48;;
43519;SDS011;46848;51.980;5.918;2022-07-23T00:27:44;2.40;;;1.38;;
43519;SDS011;46848;51.980;5.918;2022-07-23T00:30:10;3.28;;;1.55;;
43519;SDS011;46848;51.980;5.918;2022-07-23T00:32:46;2.83;;;1.38;;
43519;SDS011;46848;51.980;5.918;2022-07-23T00:35:14;4.60;;;1.60;;
43519;SDS011;46848;51.980;5.918;2022-07-23T00:37:39;3.25;;;1.50;;
43519;SDS011;46848;51.980;5.918;2022-07-23T00:40:05;3.75;;;1.55;;
43519;SDS011;46848;51.980;5.918;2022-07-23T00:42:32;3.85;;;1.95;;
43519;SDS011;46848;51.980;5.918;2022-07-23T00:44:58;4.63;;;1.52;;
43519;SDS011;46848;51.980;5.918;2022-07-23T00:47:23;5.57;;;2.92;;
43519;SDS011;46848;51.980;5.918;2022-07-23T00:49:49;12.95;;;7.78;;
43519;SDS011;46848;51.980;5.918;2022-07-23T00:52:14;13.82;;;10.57;;
43519;SDS011;46848;51.980;5.918;2022-07-23T00:54:41;12.82;;;8.05;;
43519;SDS011;46848;51.980;5.918;2022-07-23T00:57:07;13.20;;;7.78;;
43519;SDS011;46848;51.980;5.918;2022-07-23T00:59:33;8.80;;;6.28;;
43519;SDS011;46848;51.980;5.918;2022-07-23T01:01:59;7.80;;;5.10;;
43519;SDS011;46848;51.980;5.918;2022-07-23T01:04:24;7.25;;;4.63;;
43519;SDS011;46848;51.980;5.918;2022-07-23T01:06:50;5.88;;;3.38;;
43519;SDS011;46848;51.980;5.918;2022-07-23T01:09:17;5.93;;;3.08;;
43519;SDS011;46848;51.980;5.918;2022-07-23T01:11:43;7.60;;;4.47;;
43519;SDS011;46848;51.980;5.918;2022-07-23T01:16:35;5.72;;;3.63;;
43519;SDS011;46848;51.980;5.918;2022-07-23T01:19:01;7.35;;;4.13;;
43519;SDS011;46848;51.980;5.918;2022-07-23T01:21:29;7.88;;;4.63;;
43519;SDS011;46848;51.980;5.918;2022-07-23T01:23:55;6.47;;;3.88;;
43519;SDS011;46848;51.980;5.918;2022-07-23T01:26:21;5.35;;;3.20;;
43519;SDS011;46848;51.980;5.918;2022-07-23T01:28:47;7.07;;;2.60;;
43519;SDS011;46848;51.980;5.918;2022-07-23T01:31:12;4.32;;;2.10;;
43519;SDS011;46848;51.980;5.918;2022-07-23T01:33:38;5.68;;;2.20;;
43519;SDS011;46848;51.980;5.918;2022-07-23T01:36:03;4.82;;;2.25;;
43519;SDS011;46848;51.980;5.918;2022-07-23T01:38:29;5.03;;;1.75;;
43519;SDS011;46848;51.980;5.918;2022-07-23T01:40:55;4.47;;;2.47;;
43519;SDS011;46848;51.980;5.918;2022-07-23T01:43:21;6.40;;;3.72;;
43519;SDS011;46848;51.980;5.918;2022-07-23T01:45:46;9.00;;;6.18;;
43519;SDS011;46848;51.980;5.918;2022-07-23T01:48:12;7.50;;;5.35;;
43519;SDS011;46848;51.980;5.918;2022-07-23T01:50:38;9.80;;;6.65;;
43519;SDS011;46848;51.980;5.918;2022-07-23T01:53:03;11.25;;;7.18;;
43519;SDS011;46848;51.980;5.918;2022-07-23T01:55:29;7.65;;;6.07;;
43519;SDS011;46848;51.980;5.918;2022-07-23T01:57:55;9.43;;;7.40;;
43519;SDS011;46848;51.980;5.918;2022-07-23T02:00:20;15.30;;;9.70;;
43519;SDS011;46848;51.980;5.918;2022-07-23T02:02:46;11.20;;;8.10;;
43519;SDS011;46848;51.980;5.918;2022-07-23T02:05:11;9.07;;;6.75;;
43519;SDS011;46848;51.980;5.918;2022-07-23T02:07:37;10.30;;;7.18;;
43519;SDS011;46848;51.980;5.918;2022-07-23T02:10:03;16.50;;;11.80;;
43519;SDS011;46848;51.980;5.918;2022-07-23T02:12:29;21.40;;;15.77;;
43519;SDS011;46848;51.980;5.918;2022-07-23T02:14:54;22.20;;;14.48;;
43519;SDS011;46848;51.980;5.918;2022-07-23T02:17:20;14.80;;;10.68;;
43519;SDS011;46848;51.980;5.918;2022-07-23T02:19:46;13.63;;;11.27;;
43519;SDS011;46848;51.980;5.918;2022-07-23T02:22:11;15.15;;;11.35;;
43519;SDS011;46848;51.980;5.918;2022-07-23T02:24:37;14.38;;;10.00;;
43519;SDS011;46848;51.980;5.918;2022-07-23T02:27:03;13.98;;;8.95;;
43519;SDS011;46848;51.980;5.918;2022-07-23T02:29:28;8.35;;;6.30;;
43519;SDS011;46848;51.980;5.918;2022-07-23T02:31:54;9.00;;;6.60;;
43519;SDS011;46848;51.980;5.918;2022-07-23T02:34:19;9.70;;;6.38;;
43519;SDS011;46848;51.980;5.918;2022-07-23T02:36:45;8.68;;;5.65;;
43519;SDS011;46848;51.980;5.918;2022-07-23T02:39:11;6.95;;;5.15;;
43519;SDS011;46848;51.980;5.918;2022-07-23T02:41:36;7.15;;;4.53;;
43519;SDS011;46848;51.980;5.918;2022-07-23T02:44:02;9.73;;;5.85;;
43519;SDS011;46848;51.980;5.918;2022-07-23T02:46:28;16.00;;;12.00;;
43519;SDS011;46848;51.980;5.918;2022-07-23T02:48:53;15.18;;;11.88;;
43519;SDS011;46848;51.980;5.918;2022-07-23T02:51:19;15.80;;;10.18;;
43519;SDS011;46848;51.980;5.918;2022-07-23T02:53:45;11.50;;;7.40;;
43519;SDS011;46848;51.980;5.918;2022-07-23T02:56:10;10.30;;;5.82;;
43519;SDS011;46848;51.980;5.918;2022-07-23T02:58:36;8.15;;;4.70;;
43519;SDS011;46848;51.980;5.918;2022-07-23T03:01:02;7.50;;;4.22;;
43519;SDS011;46848;51.980;5.918;2022-07-23T03:03:27;9.80;;;6.03;;
43519;SDS011;46848;51.980;5.918;2022-07-23T03:05:53;8.35;;;6.30;;
43519;SDS011;46848;51.980;5.918;2022-07-23T03:08:19;10.00;;;7.10;;
43519;SDS011;46848;51.980;5.918;2022-07-23T03:10:45;8.50;;;5.72;;
43519;SDS011;46848;51.980;5.918;2022-07-23T03:13:10;11.95;;;6.07;;
43519;SDS011;46848;51.980;5.918;2022-07-23T03:15:36;7.95;;;6.05;;
43519;SDS011;46848;51.980;5.918;2022-07-23T03:18:01;5.75;;;4.18;;
43519;SDS011;46848;51.980;5.918;2022-07-23T03:20:27;9.43;;;4.32;;
43519;SDS011;46848;51.980;5.918;2022-07-23T03:22:53;7.65;;;5.05;;
43519;SDS011;46848;51.980;5.918;2022-07-23T03:25:18;8.60;;;5.28;;
43519;SDS011;46848;51.980;5.918;2022-07-23T03:27:44;5.97;;;4.13;;
43519;SDS011;46848;51.980;5.918;2022-07-23T03:30:10;7.03;;;3.80;;
43519;SDS011;46848;51.980;5.918;2022-07-23T03:32:37;6.78;;;4.00;;
43519;SDS011;46848;51.980;5.918;2022-07-23T03:35:03;9.30;;;4.78;;
43519;SDS011;46848;51.980;5.918;2022-07-23T03:37:29;8.63;;;4.93;;
43519;SDS011;46848;51.980;5.918;2022-07-23T03:39:54;9.02;;;6.13;;
43519;SDS011;46848;51.980;5.918;2022-07-23T03:42:20;12.75;;;6.97;;
43519;SDS011;46848;51.980;5.918;2022-07-23T03:44:46;9.88;;;6.63;;
43519;SDS011;46848;51.980;5.918;2022-07-23T03:47:11;9.77;;;7.40;;
43519;SDS011;46848;51.980;5.918;2022-07-23T03:49:37;13.05;;;9.88;;
43519;SDS011;46848;51.980;5.918;2022-07-23T03:52:03;10.68;;;7.10;;
43519;SDS011;46848;51.980;5.918;2022-07-23T03:54:29;6.88;;;4.53;;
43519;SDS011;46848;51.980;5.918;2022-07-23T03:56:54;5.97;;;3.70;;
43519;SDS011;46848;51.980;5.918;2022-07-23T03:59:20;4.53;;;2.70;;
43519;SDS011;46848;51.980;5.918;2022-07-23T04:01:46;4.78;;;2.40;;
43519;SDS011;46848;51.980;5.918;2022-07-23T04:04:12;6.10;;;2.80;;
43519;SDS011;46848;51.980;5.918;2022-07-23T04:06:37;5.25;;;2.45;;
43519;SDS011;46848;51.980;5.918;2022-07-23T04:09:03;4.10;;;2.50;;
43519;SDS011;46848;51.980;5.918;2022-07-23T04:11:29;5.20;;;2.90;;
43519;SDS011;46848;51.980;5.918;2022-07-23T04:13:55;4.32;;;1.92;;
43519;SDS011;46848;51.980;5.918;2022-07-23T04:16:21;5.00;;;2.50;;
43519;SDS011;46848;51.980;5.918;2022-07-23T04:18:46;3.10;;;1.90;;
43519;SDS011;46848;51.980;5.918;2022-07-23T04:21:12;2.55;;;1.38;;
43519;SDS011;46848;51.980;5.918;2022-07-23T04:23:37;3.92;;;1.50;;
43519;SDS011;46848;51.980;5.918;2022-07-23T04:26:03;3.53;;;1.50;;
43519;SDS011;46848;51.980;5.918;2022-07-23T04:28:29;3.75;;;1.50;;
43519;SDS011;46848;51.980;5.918;2022-07-23T04:30:58;4.22;;;1.58;;
43519;SDS011;46848;51.980;5.918;2022-07-23T04:33:24;4.47;;;1.90;;
43519;SDS011;46848;51.980;5.918;2022-07-23T04:35:49;3.50;;;1.90;;
43519;SDS011;46848;51.980;5.918;2022-07-23T04:38:15;4.63;;;1.98;;
43519;SDS011;46848;51.980;5.918;2022-07-23T04:40:41;4.80;;;1.70;;
43519;SDS011;46848;51.980;5.918;2022-07-23T04:43:06;3.45;;;1.63;;
43519;SDS011;46848;51.980;5.918;2022-07-23T04:45:32;5.25;;;2.38;;
43519;SDS011;46848;51.980;5.918;2022-07-23T04:47:58;5.57;;;2.35;;
43519;SDS011;46848;51.980;5.918;2022-07-23T04:50:23;4.82;;;2.40;;
43519;SDS011;46848;51.980;5.918;2022-07-23T04:52:49;7.95;;;2.60;;
43519;SDS011;46848;51.980;5.918;2022-07-23T04:55:15;5.93;;;2.75;;
43519;SDS011;46848;51.980;5.918;2022-07-23T04:57:42;5.03;;;2.05;;
43519;SDS011;46848;51.980;5.918;2022-07-23T05:00:08;5.65;;;2.15;;
43519;SDS011;46848;51.980;5.918;2022-07-23T05:02:34;4.40;;;2.30;;
43519;SDS011;46848;51.980;5.918;2022-07-23T05:05:00;5.20;;;2.35;;
43519;SDS011;46848;51.980;5.918;2022-07-23T05:07:25;4.35;;;1.67;;
43519;SDS011;46848;51.980;5.918;2022-07-23T05:09:51;5.63;;;3.17;;
43519;SDS011;46848;51.980;5.918;2022-07-23T05:12:17;5.97;;;3.17;;
43519;SDS011;46848;51.980;5.918;2022-07-23T05:14:42;6.30;;;3.08;;
43519;SDS011;46848;51.980;5.918;2022-07-23T05:17:08;8.65;;;3.53;;
43519;SDS011;46848;51.980;5.918;2022-07-23T05:19:34;6.57;;;2.25;;
43519;SDS011;46848;51.980;5.918;2022-07-23T05:22:00;4.78;;;1.80;;
43519;SDS011;46848;51.980;5.918;2022-07-23T05:24:26;2.20;;;1.02;;
43519;SDS011;46848;51.980;5.918;2022-07-23T05:26:52;3.25;;;1.10;;
43519;SDS011;46848;51.980;5.918;2022-07-23T05:29:17;1.85;;;0.70;;
43519;SDS011;46848;51.980;5.918;2022-07-23T05:31:43;2.15;;;0.88;;
43519;SDS011;46848;51.980;5.918;2022-07-23T05:34:09;2.90;;;0.90;;
43519;SDS011;46848;51.980;5.918;2022-07-23T05:36:34;3.97;;;1.35;;
43519;SDS011;46848;51.980;5.918;2022-07-23T05:39:00;2.67;;;0.80;;
43519;SDS011;46848;51.980;5.918;2022-07-23T05:41:26;2.92;;;0.95;;
43519;SDS011;46848;51.980;5.918;2022-07-23T05:43:52;3.97;;;1.40;;
43519;SDS011;46848;51.980;5.918;2022-07-23T05:46:17;2.95;;;0.90;;
43519;SDS011;46848;51.980;5.918;2022-07-23T05:48:43;2.63;;;0.90;;
43519;SDS011;46848;51.980;5.918;2022-07-23T05:51:11;1.92;;;0.75;;
43519;SDS011;46848;51.980;5.918;2022-07-23T05:53:36;1.83;;;0.47;;
43519;SDS011;46848;51.980;5.918;2022-07-23T05:56:03;1.83;;;0.70;;
43519;SDS011;46848;51.980;5.918;2022-07-23T05:58:29;1.20;;;0.70;;
43519;SDS011;46848;51.980;5.918;2022-07-23T06:00:55;3.80;;;0.70;;
43519;SDS011;46848;51.980;5.918;2022-07-23T06:03:20;2.75;;;0.60;;
43519;SDS011;46848;51.980;5.918;2022-07-23T06:05:46;1.65;;;0.50;;
43519;SDS011;46848;51.980;5.918;2022-07-23T06:08:12;1.90;;;0.73;;
43519;SDS011;46848;51.980;5.918;2022-07-23T06:10:37;5.68;;;0.70;;
43519;SDS011;46848;51.980;5.918;2022-07-23T06:13:03;1.67;;;0.50;;
43519;SDS011;46848;51.980;5.918;2022-07-23T06:15:29;0.88;;;0.50;;
43519;SDS011;46848;51.980;5.918;2022-07-23T06:17:55;1.63;;;0.60;;
43519;SDS011;46848;51.980;5.918;2022-07-23T06:20:21;2.25;;;0.70;;
43519;SDS011;46848;51.980;5.918;2022-07-23T06:22:46;2.95;;;0.80;;
43519;SDS011;46848;51.980;5.918;2022-07-23T06:25:12;3.83;;;0.85;;
43519;SDS011;46848;51.980;5.918;2022-07-23T06:27:37;3.75;;;1.13;;
43519;SDS011;46848;51.980;5.918;2022-07-23T06:30:03;1.42;;;0.60;;
43519;SDS011;46848;51.980;5.918;2022-07-23T06:32:30;2.45;;;0.80;;
43519;SDS011;46848;51.980;5.918;2022-07-23T06:34:56;3.25;;;0.80;;
43519;SDS011;46848;51.980;5.918;2022-07-23T06:37:21;1.50;;;0.70;;
43519;SDS011;46848;51.980;5.918;2022-07-23T06:39:47;1.08;;;0.55;;
43519;SDS011;46848;51.980;5.918;2022-07-23T06:42:13;2.50;;;0.57;;
43519;SDS011;46848;51.980;5.918;2022-07-23T06:44:39;2.47;;;1.17;;
43519;SDS011;46848;51.980;5.918;2022-07-23T06:47:05;2.65;;;0.88;;
43519;SDS011;46848;51.980;5.918;2022-07-23T06:49:31;1.42;;;0.63;;
43519;SDS011;46848;51.980;5.918;2022-07-23T06:51:56;1.92;;;0.70;;
43519;SDS011;46848;51.980;5.918;2022-07-23T06:54:22;2.95;;;0.80;;
43519;SDS011;46848;51.980;5.918;2022-07-23T06:56:48;3.70;;;0.73;;
43519;SDS011;46848;51.980;5.918;2022-07-23T06:59:13;4.93;;;0.60;;
43519;SDS011;46848;51.980;5.918;2022-07-23T07:01:39;2.72;;;0.70;;
43519;SDS011;46848;51.980;5.918;2022-07-23T07:04:05;2.80;;;0.80;;
43519;SDS011;46848;51.980;5.918;2022-07-23T07:06:31;4.90;;;0.90;;
43519;SDS011;46848;51.980;5.918;2022-07-23T07:08:56;3.90;;;0.60;;
43519;SDS011;46848;51.980;5.918;2022-07-23T07:11:22;4.07;;;0.90;;
43519;SDS011;46848;51.980;5.918;2022-07-23T07:13:49;4.85;;;0.90;;
43519;SDS011;46848;51.980;5.918;2022-07-23T07:16:15;2.28;;;0.70;;
43519;SDS011;46848;51.980;5.918;2022-07-23T07:18:40;2.22;;;0.60;;
43519;SDS011;46848;51.980;5.918;2022-07-23T07:21:06;1.75;;;0.60;;
43519;SDS011;46848;51.980;5.918;2022-07-23T07:23:31;3.28;;;0.80;;
43519;SDS011;46848;51.980;5.918;2022-07-23T07:25:57;3.60;;;0.90;;
43519;SDS011;46848;51.980;5.918;2022-07-23T07:28:23;1.48;;;0.57;;
43519;SDS011;46848;51.980;5.918;2022-07-23T07:30:49;1.63;;;0.60;;
43519;SDS011;46848;51.980;5.918;2022-07-23T07:33:14;3.22;;;0.60;;
43519;SDS011;46848;51.980;5.918;2022-07-23T07:35:40;2.13;;;0.73;;
43519;SDS011;46848;51.980;5.918;2022-07-23T07:38:06;1.25;;;0.73;;
43519;SDS011;46848;51.980;5.918;2022-07-23T07:40:31;2.88;;;0.80;;
43519;SDS011;46848;51.980;5.918;2022-07-23T07:42:57;1.20;;;0.50;;
43519;SDS011;46848;51.980;5.918;2022-07-23T07:45:23;1.40;;;0.60;;
43519;SDS011;46848;51.980;5.918;2022-07-23T07:47:49;2.22;;;0.65;;
43519;SDS011;46848;51.980;5.918;2022-07-23T07:50:16;4.10;;;0.73;;
43519;SDS011;46848;51.980;5.918;2022-07-23T07:52:42;3.38;;;0.60;;
43519;SDS011;46848;51.980;5.918;2022-07-23T07:55:08;1.48;;;0.60;;
43519;SDS011;46848;51.980;5.918;2022-07-23T07:57:35;3.28;;;0.70;;
43519;SDS011;46848;51.980;5.918;2022-07-23T08:00:01;3.63;;;0.90;;
43519;SDS011;46848;51.980;5.918;2022-07-23T08:02:26;2.15;;;0.60;;
43519;SDS011;46848;51.980;5.918;2022-07-23T08:04:52;3.00;;;0.82;;
43519;SDS011;46848;51.980;5.918;2022-07-23T08:07:18;3.30;;;0.80;;
43519;SDS011;46848;51.980;5.918;2022-07-23T08:09:44;1.88;;;0.65;;
43519;SDS011;46848;51.980;5.918;2022-07-23T08:12:09;2.28;;;0.70;;
43519;SDS011;46848;51.980;5.918;2022-07-23T08:14:36;3.30;;;0.82;;
43519;SDS011;46848;51.980;5.918;2022-07-23T08:17:02;2.35;;;0.70;;
43519;SDS011;46848;51.980;5.918;2022-07-23T08:19:28;2.65;;;0.73;;
43519;SDS011;46848;51.980;5.918;2022-07-23T08:21:53;1.52;;;0.60;;
43519;SDS011;46848;51.980;5.918;2022-07-23T08:24:19;2.80;;;0.63;;
43519;SDS011;46848;51.980;5.918;2022-07-23T08:26:45;2.90;;;0.57;;
43519;SDS011;46848;51.980;5.918;2022-07-23T08:29:10;1.10;;;0.50;;
43519;SDS011;46848;51.980;5.918;2022-07-23T08:31:36;2.63;;;0.60;;
43519;SDS011;46848;51.980;5.918;2022-07-23T08:34:02;2.10;;;0.50;;
43519;SDS011;46848;51.980;5.918;2022-07-23T08:36:28;2.05;;;0.50;;
43519;SDS011;46848;51.980;5.918;2022-07-23T08:38:57;2.15;;;0.77;;
43519;SDS011;46848;51.980;5.918;2022-07-23T08:41:24;1.95;;;0.80;;
43519;SDS011;46848;51.980;5.918;2022-07-23T08:43:49;2.42;;;1.10;;
43519;SDS011;46848;51.980;5.918;2022-07-23T08:46:16;3.47;;;1.38;;
43519;SDS011;46848;51.980;5.918;2022-07-23T08:48:44;3.10;;;0.80;;
43519;SDS011;46848;51.980;5.918;2022-07-23T08:51:13;3.38;;;1.35;;
43519;SDS011;46848;51.980;5.918;2022-07-23T08:53:39;3.72;;;1.00;;
43519;SDS011;46848;51.980;5.918;2022-07-23T08:56:06;1.98;;;0.80;;
43519;SDS011;46848;51.980;5.918;2022-07-23T08:58:33;1.65;;;0.88;;
43519;SDS011;46848;51.980;5.918;2022-07-23T09:00:59;1.08;;;0.60;;
43519;SDS011;46848;51.980;5.918;2022-07-23T09:03:26;2.25;;;0.88;;
43519;SDS011;46848;51.980;5.918;2022-07-23T09:06:04;1.48;;;0.75;;
43519;SDS011;46848;51.980;5.918;2022-07-23T09:11:04;2.78;;;0.80;;
43519;SDS011;46848;51.980;5.918;2022-07-23T09:13:33;3.58;;;1.02;;
43519;SDS011;46848;51.980;5.918;2022-07-23T09:16:02;2.17;;;0.70;;
43519;SDS011;46848;51.980;5.918;2022-07-23T09:18:35;1.87;;;0.70;;
43519;SDS011;46848;51.980;5.918;2022-07-23T09:23:42;2.17;;;0.70;;
43519;SDS011;46848;51.980;5.918;2022-07-23T09:26:23;1.42;;;0.60;;
43519;SDS011;46848;51.980;5.918;2022-07-23T09:29:01;1.58;;;0.57;;
43519;SDS011;46848;51.980;5.918;2022-07-23T09:34:25;1.80;;;0.60;;
43519;SDS011;46848;51.980;5.918;2022-07-23T09:36:53;1.40;;;0.80;;
43519;SDS011;46848;51.980;5.918;2022-07-23T09:41:56;5.53;;;0.70;;
43519;SDS011;46848;51.980;5.918;2022-07-23T09:44:23;1.83;;;0.77;;
43519;SDS011;46848;51.980;5.918;2022-07-23T09:46:49;2.55;;;0.60;;
43519;SDS011;46848;51.980;5.918;2022-07-23T09:49:22;1.85;;;0.80;;
43519;SDS011;46848;51.980;5.918;2022-07-23T09:51:51;3.17;;;0.68;;
43519;SDS011;46848;51.980;5.918;2022-07-23T09:56:49;2.53;;;0.80;;
43519;SDS011;46848;51.980;5.918;2022-07-23T09:59:16;16.48;;;9.85;;
43519;SDS011;46848;51.980;5.918;2022-07-23T10:01:44;17.58;;;10.57;;
43519;SDS011;46848;51.980;5.918;2022-07-23T10:04:11;13.10;;;7.53;;
43519;SDS011;46848;51.980;5.918;2022-07-23T10:06:39;7.32;;;3.83;;
43519;SDS011;46848;51.980;5.918;2022-07-23T10:09:05;9.68;;;3.75;;
43519;SDS011;46848;51.980;5.918;2022-07-23T10:11:33;5.18;;;2.17;;
43519;SDS011;46848;51.980;5.918;2022-07-23T10:14:00;4.70;;;1.67;;
43519;SDS011;46848;51.980;5.918;2022-07-23T10:16:28;2.95;;;1.17;;
43519;SDS011;46848;51.980;5.918;2022-07-23T10:18:54;3.22;;;1.13;;
43519;SDS011;46848;51.980;5.918;2022-07-23T10:21:23;20.45;;;8.02;;
43519;SDS011;46848;51.980;5.918;2022-07-23T10:24:01;8.40;;;3.67;;
43519;SDS011;46848;51.980;5.918;2022-07-23T10:26:51;6.07;;;2.25;;
43519;SDS011;46848;51.980;5.918;2022-07-23T10:32:08;3.30;;;1.20;;
43519;SDS011;46848;51.980;5.918;2022-07-23T10:37:35;2.22;;;0.80;;
43519;SDS011;46848;51.980;5.918;2022-07-23T10:40:13;2.90;;;0.98;;
43519;SDS011;46848;51.980;5.918;2022-07-23T10:42:44;2.13;;;0.73;;
43519;SDS011;46848;51.980;5.918;2022-07-23T10:45:44;1.00;;;0.57;;
43519;SDS011;46848;51.980;5.918;2022-07-23T10:48:35;1.90;;;0.80;;
43519;SDS011;46848;51.980;5.918;2022-07-23T10:51:10;2.97;;;0.82;;
43519;SDS011;46848;51.980;5.918;2022-07-23T10:59:22;2.25;;;1.00;;
43519;SDS011;46848;51.980;5.918;2022-07-23T11:01:48;1.83;;;0.90;;
43519;SDS011;46848;51.980;5.918;2022-07-23T11:04:15;4.50;;;0.82;;
43519;SDS011;46848;51.980;5.918;2022-07-23T11:09:25;2.05;;;0.80;;
43519;SDS011;46848;51.980;5.918;2022-07-23T11:15:24;4.35;;;2.35;;
43519;SDS011;46848;51.980;5.918;2022-07-23T11:20:16;1.87;;;0.90;;
43519;SDS011;46848;51.980;5.918;2022-07-23T11:27:47;1.98;;;0.93;;
43519;SDS011;46848;51.980;5.918;2022-07-23T11:32:52;1.45;;;0.80;;
43519;SDS011;46848;51.980;5.918;2022-07-23T11:35:25;2.80;;;1.00;;
43519;SDS011;46848;51.980;5.918;2022-07-23T11:37:53;1.88;;;1.02;;
43519;SDS011;46848;51.980;5.918;2022-07-23T11:40:30;2.45;;;0.93;;
43519;SDS011;46848;51.980;5.918;2022-07-23T11:43:02;2.30;;;1.10;;
43519;SDS011;46848;51.980;5.918;2022-07-23T11:45:34;4.95;;;0.80;;
43519;SDS011;46848;51.980;5.918;2022-07-23T11:48:02;3.15;;;1.00;;
43519;SDS011;46848;51.980;5.918;2022-07-23T11:50:29;6.40;;;1.10;;
43519;SDS011;46848;51.980;5.918;2022-07-23T11:52:55;2.28;;;0.98;;
43519;SDS011;46848;51.980;5.918;2022-07-23T11:55:21;1.85;;;0.98;;
43519;SDS011;46848;51.980;5.918;2022-07-23T11:57:47;2.35;;;0.90;;
43519;SDS011;46848;51.980;5.918;2022-07-23T12:00:14;3.50;;;1.45;;
43519;SDS011;46848;51.980;5.918;2022-07-23T12:02:48;2.53;;;1.30;;
43519;SDS011;46848;51.980;5.918;2022-07-23T12:05:22;2.35;;;1.10;;
43519;SDS011;46848;51.980;5.918;2022-07-23T12:07:51;3.35;;;1.17;;
43519;SDS011;46848;51.980;5.918;2022-07-23T12:10:19;2.63;;;1.00;;
43519;SDS011;46848;51.980;5.918;2022-07-23T12:12:48;2.53;;;1.00;;
43519;SDS011;46848;51.980;5.918;2022-07-23T12:15:21;1.55;;;0.88;;
43519;SDS011;46848;51.980;5.918;2022-07-23T12:17:48;3.42;;;1.20;;
43519;SDS011;46848;51.980;5.918;2022-07-23T12:20:16;2.05;;;1.10;;
43519;SDS011;46848;51.980;5.918;2022-07-23T12:22:45;2.10;;;0.88;;
43519;SDS011;46848;51.980;5.918;2022-07-23T12:27:41;2.55;;;0.95;;
43519;SDS011;46848;51.980;5.918;2022-07-23T12:30:18;2.78;;;1.17;;
43519;SDS011;46848;51.980;5.918;2022-07-23T12:32:45;4.00;;;1.15;;
43519;SDS011;46848;51.980;5.918;2022-07-23T12:35:12;2.92;;;1.05;;
43519;SDS011;46848;51.980;5.918;2022-07-23T12:37:39;2.75;;;1.00;;
43519;SDS011;46848;51.980;5.918;2022-07-23T12:42:45;2.20;;;1.20;;
43519;SDS011;46848;51.980;5.918;2022-07-23T12:45:14;4.70;;;1.30;;
43519;SDS011;46848;51.980;5.918;2022-07-23T12:50:37;2.17;;;1.20;;
43519;SDS011;46848;51.980;5.918;2022-07-23T12:53:09;2.50;;;1.02;;
43519;SDS011;46848;51.980;5.918;2022-07-23T12:55:41;2.65;;;1.58;;
43519;SDS011;46848;51.980;5.918;2022-07-23T12:58:11;2.35;;;1.20;;
43519;SDS011;46848;51.980;5.918;2022-07-23T13:00:48;2.67;;;1.50;;
43519;SDS011;46848;51.980;5.918;2022-07-23T13:03:23;2.23;;;1.23;;
43519;SDS011;46848;51.980;5.918;2022-07-23T13:05:56;2.63;;;1.33;;
43519;SDS011;46848;51.980;5.918;2022-07-23T13:08:24;2.22;;;1.27;;
43519;SDS011;46848;51.980;5.918;2022-07-23T13:10:50;3.17;;;1.20;;
43519;SDS011;46848;51.980;5.918;2022-07-23T13:13:20;3.40;;;0.85;;
43519;SDS011;46848;51.980;5.918;2022-07-23T13:15:47;2.97;;;1.40;;
43519;SDS011;46848;51.980;5.918;2022-07-23T13:18:13;3.28;;;1.35;;
43519;SDS011;46848;51.980;5.918;2022-07-23T13:20:38;4.50;;;1.40;;
43519;SDS011;46848;51.980;5.918;2022-07-23T13:23:05;2.85;;;1.27;;
43519;SDS011;46848;51.980;5.918;2022-07-23T13:25:32;2.88;;;1.15;;
43519;SDS011;46848;51.980;5.918;2022-07-23T13:27:57;2.85;;;1.40;;
43519;SDS011;46848;51.980;5.918;2022-07-23T13:30:23;2.90;;;1.00;;
43519;SDS011;46848;51.980;5.918;2022-07-23T13:32:49;3.30;;;1.52;;
43519;SDS011;46848;51.980;5.918;2022-07-23T13:35:14;3.08;;;1.63;;
43519;SDS011;46848;51.980;5.918;2022-07-23T13:37:40;3.65;;;1.95;;
43519;SDS011;46848;51.980;5.918;2022-07-23T13:40:06;3.63;;;1.60;;
43519;SDS011;46848;51.980;5.918;2022-07-23T13:42:33;2.97;;;1.38;;
43519;SDS011;46848;51.980;5.918;2022-07-23T13:44:58;15.77;;;7.97;;
43519;SDS011;46848;51.980;5.918;2022-07-23T13:47:24;6.20;;;3.67;;
43519;SDS011;46848;51.980;5.918;2022-07-23T13:49:50;4.28;;;2.25;;
43519;SDS011;46848;51.980;5.918;2022-07-23T13:52:16;3.72;;;1.98;;
43519;SDS011;46848;51.980;5.918;2022-07-23T13:54:41;4.55;;;2.00;;
43519;SDS011;46848;51.980;5.918;2022-07-23T13:57:08;3.65;;;1.60;;
43519;SDS011;46848;51.980;5.918;2022-07-23T13:59:34;2.67;;;1.30;;
43519;SDS011;46848;51.980;5.918;2022-07-23T14:02:01;2.03;;;1.30;;
43519;SDS011;46848;51.980;5.918;2022-07-23T14:04:28;4.20;;;2.38;;
43519;SDS011;46848;51.980;5.918;2022-07-23T14:06:53;2.72;;;1.52;;
43519;SDS011;46848;51.980;5.918;2022-07-23T14:09:19;4.22;;;1.45;;
43519;SDS011;46848;51.980;5.918;2022-07-23T14:11:45;3.78;;;1.60;;
43519;SDS011;46848;51.980;5.918;2022-07-23T14:14:10;3.72;;;1.27;;
43519;SDS011;46848;51.980;5.918;2022-07-23T14:16:36;3.70;;;1.40;;
43519;SDS011;46848;51.980;5.918;2022-07-23T14:19:02;4.00;;;1.92;;
43519;SDS011;46848;51.980;5.918;2022-07-23T14:21:27;2.90;;;1.30;;
43519;SDS011;46848;51.980;5.918;2022-07-23T14:23:53;2.95;;;1.50;;
43519;SDS011;46848;51.980;5.918;2022-07-23T14:26:19;4.10;;;2.05;;
43519;SDS011;46848;51.980;5.918;2022-07-23T14:28:44;3.55;;;1.60;;
43519;SDS011;46848;51.980;5.918;2022-07-23T14:31:10;3.17;;;1.48;;
43519;SDS011;46848;51.980;5.918;2022-07-23T14:33:36;3.17;;;1.50;;
43519;SDS011;46848;51.980;5.918;2022-07-23T14:36:01;3.72;;;1.77;;
43519;SDS011;46848;51.980;5.918;2022-07-23T14:38:27;4.32;;;1.88;;
43519;SDS011;46848;51.980;5.918;2022-07-23T14:40:55;2.88;;;1.60;;
43519;SDS011;46848;51.980;5.918;2022-07-23T14:43:21;2.33;;;1.15;;
43519;SDS011;46848;51.980;5.918;2022-07-23T14:45:47;3.30;;;1.55;;
43519;SDS011;46848;51.980;5.918;2022-07-23T14:48:12;2.72;;;1.33;;
43519;SDS011;46848;51.980;5.918;2022-07-23T14:50:38;2.80;;;1.58;;
43519;SDS011;46848;51.980;5.918;2022-07-23T14:53:04;3.78;;;2.15;;
43519;SDS011;46848;51.980;5.918;2022-07-23T14:55:31;3.97;;;1.80;;
43519;SDS011;46848;51.980;5.918;2022-07-23T14:57:57;2.72;;;1.45;;
43519;SDS011;46848;51.980;5.918;2022-07-23T15:00:22;3.60;;;1.40;;
43519;SDS011;46848;51.980;5.918;2022-07-23T15:02:48;2.28;;;1.20;;
43519;SDS011;46848;51.980;5.918;2022-07-23T15:05:14;3.38;;;2.03;;
43519;SDS011;46848;51.980;5.918;2022-07-23T15:07:39;3.42;;;1.65;;
43519;SDS011;46848;51.980;5.918;2022-07-23T15:10:05;4.47;;;1.52;;
43519;SDS011;46848;51.980;5.918;2022-07-23T15:12:31;3.17;;;1.60;;
43519;SDS011;46848;51.980;5.918;2022-07-23T15:14:57;4.65;;;1.90;;
43519;SDS011;46848;51.980;5.918;2022-07-23T15:17:22;2.90;;;1.60;;
43519;SDS011;46848;51.980;5.918;2022-07-23T15:19:49;2.75;;;1.50;;
43519;SDS011;46848;51.980;5.918;2022-07-23T15:22:16;2.35;;;1.50;;
43519;SDS011;46848;51.980;5.918;2022-07-23T15:24:42;2.67;;;1.30;;
43519;SDS011;46848;51.980;5.918;2022-07-23T15:27:07;2.22;;;1.27;;
43519;SDS011;46848;51.980;5.918;2022-07-23T15:29:33;7.50;;;1.77;;
43519;SDS011;46848;51.980;5.918;2022-07-23T15:31:59;3.28;;;1.48;;
43519;SDS011;46848;51.980;5.918;2022-07-23T15:34:25;4.93;;;1.80;;